Time;durP1;ratioP1;P1;durP2;ratioP2;P2;SDS_P1;SDS_P2;PMS_P1;PMS_P2;Temp;Humidity;BMP_temperature;BMP_pressure;BME280_temperature;BME280_humidity;BME280_pressure;Samples;Min_cycle;Max_cycle;Signal;HPM_P1;HPM_P2
2023/06/06 00:01:29;;;;;;;0.10;0.10;;;12.30;99.90;;;;;;5008465;28;20053;-65
2023/06/06 00:03:56;;;;;;;0.00;0.00;;;12.30;99.90;;;;;;5010920;28;20046;-65
2023/06/06 00:06:24;;;;;;;0.10;0.10;;;12.30;99.90;;;;;;5012592;28;20121;-65
2023/06/06 00:08:50;;;;;;;1.55;1.45;;;12.30;99.90;;;;;;5007751;28;20073;-65
2023/06/06 00:11:16;;;;;;;0.10;0.10;;;12.30;99.90;;;;;;5004080;28;20124;-65
2023/06/06 00:13:42;;;;;;;0.63;0.45;;;12.30;99.90;;;;;;5012700;28;20125;-65
2023/06/06 00:16:08;;;;;;;0.80;0.63;;;12.30;99.90;;;;;;5006417;28;20046;-65
2023/06/06 00:18:35;;;;;;;0.00;0.00;;;12.30;99.90;;;;;;5001556;28;20042;-65
2023/06/06 00:21:00;;;;;;;0.43;0.43;;;12.20;99.90;;;;;;5008266;28;20109;-65
2023/06/06 00:23:26;;;;;;;0.00;0.00;;;12.20;99.90;;;;;;5004914;28;20077;-65
2023/06/06 00:25:54;;;;;;;0.90;0.75;;;12.20;99.90;;;;;;5010808;28;20053;-65
2023/06/06 00:28:20;;;;;;;0.10;0.10;;;12.20;99.90;;;;;;5012088;28;20394;-65
2023/06/06 00:30:46;;;;;;;0.10;0.10;;;12.20;99.90;;;;;;5008516;28;20045;-65
2023/06/06 00:33:11;;;;;;;0.00;0.00;;;12.10;99.90;;;;;;5009622;28;20037;-65
2023/06/06 00:35:37;;;;;;;0.05;0.05;;;12.10;99.90;;;;;;5004856;28;20050;-65
2023/06/06 00:38:02;;;;;;;0.30;0.30;;;12.10;99.90;;;;;;5010841;28;20069;-65
2023/06/06 00:40:28;;;;;;;0.28;0.28;;;12.10;99.90;;;;;;5011411;28;20045;-65
2023/06/06 00:42:53;;;;;;;0.40;0.40;;;12.00;99.90;;;;;;5012058;28;20485;-66
2023/06/06 00:45:19;;;;;;;0.10;0.10;;;12.10;99.90;;;;;;5003377;28;20188;-65
2023/06/06 00:47:45;;;;;;;0.00;0.00;;;12.10;99.90;;;;;;5001025;28;20033;-65
2023/06/06 00:50:12;;;;;;;0.10;0.10;;;12.10;99.90;;;;;;5011790;28;20065;-65
2023/06/06 00:52:46;;;;;;;0.80;0.80;;;12.10;99.90;;;;;;5009164;28;20092;-65
2023/06/06 00:55:13;;;;;;;0.43;0.43;;;12.10;99.90;;;;;;5032645;28;20138;-66
2023/06/06 00:57:41;;;;;;;0.10;0.10;;;12.00;99.90;;;;;;5011753;28;20437;-65
2023/06/06 01:00:08;;;;;;;0.03;0.03;;;12.10;99.90;;;;;;5000462;28;20047;-65
2023/06/06 01:02:37;;;;;;;2.05;0.47;;;12.00;99.90;;;;;;5008646;28;20038;-65
2023/06/06 01:05:06;;;;;;;0.10;0.10;;;12.00;99.90;;;;;;5008086;28;20149;-65
2023/06/06 01:07:32;;;;;;;0.25;0.25;;;12.00;99.90;;;;;;5007884;28;20086;-65
2023/06/06 01:09:58;;;;;;;1.25;0.50;;;11.90;99.90;;;;;;5010457;28;20085;-65
2023/06/06 01:12:43;;;;;;;0.30;0.30;;;11.90;99.90;;;;;;5011394;28;20042;-65
2023/06/06 01:15:22;;;;;;;1.08;0.57;;;11.90;99.90;;;;;;5001038;28;20046;-65
2023/06/06 01:17:49;;;;;;;0.08;0.08;;;11.80;99.90;;;;;;5005723;28;20049;-65
2023/06/06 01:20:16;;;;;;;0.00;0.00;;;11.80;99.90;;;;;;5002719;28;20056;-65
2023/06/06 01:22:43;;;;;;;0.00;0.00;;;11.80;99.90;;;;;;5014760;28;20092;-65
2023/06/06 01:25:09;;;;;;;0.10;0.10;;;11.80;99.90;;;;;;5006721;28;20046;-65
2023/06/06 01:27:35;;;;;;;0.00;0.00;;;11.80;99.90;;;;;;5006185;28;20055;-65
2023/06/06 01:30:02;;;;;;;0.20;0.20;;;11.80;99.90;;;;;;5014932;28;20061;-65
2023/06/06 01:32:39;;;;;;;0.30;0.30;;;11.80;99.90;;;;;;5004933;28;20046;-65
2023/06/06 01:35:24;;;;;;;0.38;0.35;;;11.80;99.90;;;;;;5010236;28;20058;-66
2023/06/06 01:38:01;;;;;;;0.15;0.15;;;11.70;99.90;;;;;;5014842;28;20042;-65
2023/06/06 01:40:30;;;;;;;0.30;0.30;;;11.70;99.90;;;;;;5012737;28;20642;-65
2023/06/06 01:42:57;;;;;;;1.25;0.80;;;11.80;99.90;;;;;;5003999;28;20046;-65
2023/06/06 01:45:28;;;;;;;0.10;0.10;;;11.70;99.90;;;;;;5014896;28;20580;-65
2023/06/06 01:47:54;;;;;;;0.40;0.40;;;11.80;99.90;;;;;;5015150;28;20034;-65
2023/06/06 01:50:21;;;;;;;0.20;0.20;;;11.80;99.90;;;;;;5004245;28;20801;-65
2023/06/06 01:52:47;;;;;;;0.00;0.00;;;11.80;99.90;;;;;;5012665;28;20092;-65
2023/06/06 01:55:12;;;;;;;0.00;0.00;;;11.80;99.90;;;;;;5013697;28;20084;-65
2023/06/06 01:57:38;;;;;;;0.10;0.10;;;11.80;99.90;;;;;;5009839;28;20042;-65
2023/06/06 02:00:07;;;;;;;1.25;0.80;;;11.80;99.90;;;;;;5010104;28;20050;-65
2023/06/06 02:02:33;;;;;;;1.10;0.85;;;11.80;99.90;;;;;;5006447;28;20033;-65
2023/06/06 02:04:58;;;;;;;0.00;0.00;;;11.80;99.90;;;;;;5010472;28;20042;-65
2023/06/06 02:07:24;;;;;;;0.57;0.47;;;11.80;99.90;;;;;;5003948;28;20550;-65
2023/06/06 02:09:50;;;;;;;0.65;0.30;;;11.90;99.90;;;;;;5013924;28;20038;-65
2023/06/06 02:12:16;;;;;;;2.50;1.15;;;11.80;99.90;;;;;;5010027;28;20085;-65
2023/06/06 02:14:42;;;;;;;0.00;0.00;;;11.90;99.90;;;;;;5001518;28;20042;-65
2023/06/06 02:17:08;;;;;;;0.20;0.15;;;11.90;99.90;;;;;;5004128;28;20049;-65
2023/06/06 02:19:33;;;;;;;0.52;0.17;;;11.90;99.90;;;;;;4998856;28;20046;-65
2023/06/06 02:21:59;;;;;;;0.65;0.40;;;12.00;99.90;;;;;;5014249;28;20120;-65
2023/06/06 02:24:25;;;;;;;0.10;0.10;;;12.00;99.90;;;;;;5013539;28;20132;-65
2023/06/06 02:26:53;;;;;;;0.10;0.10;;;12.00;99.90;;;;;;5009848;28;20038;-65
2023/06/06 02:29:20;;;;;;;0.38;0.38;;;12.00;99.90;;;;;;5007505;28;20108;-65
2023/06/06 02:31:46;;;;;;;0.47;0.38;;;12.00;99.90;;;;;;5012785;28;20054;-65
2023/06/06 02:34:11;;;;;;;0.50;0.50;;;12.10;99.90;;;;;;5014051;28;20036;-65
2023/06/06 02:36:38;;;;;;;0.20;0.20;;;12.00;99.90;;;;;;5001663;28;20076;-66
2023/06/06 02:39:04;;;;;;;0.10;0.10;;;12.10;99.90;;;;;;5006024;28;20097;-65
2023/06/06 02:41:30;;;;;;;0.20;0.20;;;12.10;99.90;;;;;;5006234;28;20045;-65
2023/06/06 02:43:55;;;;;;;0.00;0.00;;;12.10;99.90;;;;;;5006548;28;20045;-65
2023/06/06 02:46:21;;;;;;;0.55;0.55;;;12.10;99.90;;;;;;5006110;28;20076;-65
2023/06/06 02:48:48;;;;;;;0.60;0.60;;;12.20;99.90;;;;;;5035543;28;20108;-65
2023/06/06 02:51:16;;;;;;;0.03;0.03;;;12.20;99.90;;;;;;5008621;28;20045;-65
2023/06/06 02:53:43;;;;;;;1.80;0.80;;;12.20;99.90;;;;;;5004083;28;20034;-65
2023/06/06 02:56:09;;;;;;;0.00;0.00;;;12.20;99.90;;;;;;5013643;28;20042;-65
2023/06/06 02:58:34;;;;;;;0.00;0.00;;;12.20;99.90;;;;;;5013777;28;20441;-65
2023/06/06 03:01:01;;;;;;;0.32;0.32;;;12.30;99.90;;;;;;5008821;28;20060;-65
2023/06/06 03:03:26;;;;;;;0.00;0.00;;;12.20;99.90;;;;;;5000917;28;20108;-65
2023/06/06 03:05:53;;;;;;;0.17;0.17;;;12.20;99.90;;;;;;5013167;28;20553;-65
2023/06/06 03:08:19;;;;;;;0.10;0.10;;;12.20;99.90;;;;;;5013147;28;20034;-65
2023/06/06 03:10:49;;;;;;;0.38;0.38;;;12.30;99.90;;;;;;5008956;28;20041;-65
2023/06/06 03:13:15;;;;;;;0.10;0.10;;;12.30;99.90;;;;;;5011274;28;20077;-65
2023/06/06 03:15:44;;;;;;;0.30;0.30;;;12.20;99.90;;;;;;5013316;28;20054;-65
2023/06/06 03:18:11;;;;;;;0.13;0.13;;;12.20;99.90;;;;;;5008252;28;20049;-65
2023/06/06 03:20:39;;;;;;;7.50;1.50;;;12.20;99.90;;;;;;5007090;28;20043;-65
2023/06/06 03:23:06;;;;;;;0.08;0.08;;;12.20;99.90;;;;;;5008455;28;20514;-65
2023/06/06 03:25:33;;;;;;;0.20;0.20;;;12.10;99.90;;;;;;5011820;28;20511;-65
2023/06/06 03:28:01;;;;;;;0.50;0.50;;;12.20;99.90;;;;;;5012350;28;20146;-65
2023/06/06 03:30:27;;;;;;;0.00;0.00;;;12.10;99.90;;;;;;5002049;28;20042;-65
2023/06/06 03:32:52;;;;;;;0.10;0.10;;;12.10;99.90;;;;;;5008400;28;20187;-65
2023/06/06 03:35:18;;;;;;;0.15;0.15;;;12.10;99.90;;;;;;4999980;28;20038;-65
2023/06/06 03:37:44;;;;;;;0.10;0.10;;;12.10;99.90;;;;;;5002006;28;20041;-65
2023/06/06 03:40:12;;;;;;;0.25;0.22;;;12.10;99.90;;;;;;5012940;28;20034;-65
2023/06/06 03:42:37;;;;;;;0.00;0.00;;;12.10;99.90;;;;;;5011967;28;20042;-65
2023/06/06 03:45:04;;;;;;;4.47;1.05;;;12.10;99.90;;;;;;5002386;28;20046;-65
2023/06/06 03:47:30;;;;;;;0.40;0.38;;;12.10;99.90;;;;;;5008218;28;20505;-65
2023/06/06 03:49:55;;;;;;;0.30;0.30;;;12.10;99.90;;;;;;5012203;28;20073;-65
2023/06/06 03:52:21;;;;;;;0.20;0.20;;;12.10;99.90;;;;;;5007961;28;20108;-66
2023/06/06 03:54:47;;;;;;;1.75;1.08;;;12.20;99.90;;;;;;5003419;28;20077;-65
2023/06/06 03:57:12;;;;;;;0.20;0.20;;;12.20;99.90;;;;;;4999328;28;20041;-65
2023/06/06 03:59:39;;;;;;;0.98;0.82;;;12.10;99.90;;;;;;5012825;28;20440;-65
2023/06/06 04:02:05;;;;;;;0.10;0.10;;;12.20;99.90;;;;;;5003115;28;20038;-65
2023/06/06 04:04:32;;;;;;;0.20;0.20;;;12.20;99.90;;;;;;5009798;28;20398;-65
2023/06/06 04:06:58;;;;;;;0.10;0.10;;;12.20;99.90;;;;;;5009500;28;20050;-65
2023/06/06 04:09:24;;;;;;;0.20;0.20;;;12.20;99.90;;;;;;4998454;28;20046;-65
2023/06/06 04:11:49;;;;;;;0.00;0.00;;;12.20;99.90;;;;;;5011996;28;20042;-65
2023/06/06 04:14:15;;;;;;;0.38;0.38;;;12.20;99.90;;;;;;5008799;28;20133;-65
2023/06/06 04:16:41;;;;;;;0.10;0.10;;;12.30;99.90;;;;;;5001299;28;20057;-65
2023/06/06 04:19:07;;;;;;;0.90;0.73;;;12.30;99.90;;;;;;5010804;28;20056;-65
2023/06/06 04:21:33;;;;;;;0.00;0.00;;;12.30;99.90;;;;;;5012032;28;20064;-65
2023/06/06 04:23:59;;;;;;;0.10;0.10;;;12.30;99.90;;;;;;5000381;28;20494;-65
2023/06/06 04:26:27;;;;;;;1.55;0.52;;;12.30;99.90;;;;;;5007752;28;20053;-65
2023/06/06 04:28:53;;;;;;;0.22;0.22;;;12.30;99.90;;;;;;5005849;28;20100;-65
2023/06/06 04:31:21;;;;;;;0.00;0.00;;;12.30;99.90;;;;;;5010974;28;20057;-65
2023/06/06 04:33:52;;;;;;;0.05;0.05;;;12.30;99.90;;;;;;5011657;28;20042;-65
2023/06/06 04:36:19;;;;;;;0.20;0.20;;;12.40;99.90;;;;;;5000890;28;20054;-65
2023/06/06 04:38:49;;;;;;;0.43;0.30;;;12.40;99.90;;;;;;5032684;28;20073;-65
2023/06/06 04:41:20;;;;;;;0.10;0.10;;;12.50;99.90;;;;;;5009179;28;20045;-65
2023/06/06 04:43:49;;;;;;;0.60;0.30;;;12.50;99.90;;;;;;5009725;28;20501;-65
2023/06/06 04:46:21;;;;;;;0.30;0.30;;;12.50;99.90;;;;;;4996331;28;20108;-65
2023/06/06 04:48:54;;;;;;;0.05;0.05;;;12.50;99.90;;;;;;5038180;28;20042;-65
2023/06/06 04:51:29;;;;;;;4.97;0.73;;;12.50;99.90;;;;;;5002291;28;20084;-65
2023/06/06 04:53:56;;;;;;;0.05;0.05;;;12.50;99.90;;;;;;5007940;28;20038;-65
2023/06/06 04:56:21;;;;;;;0.03;0.03;;;12.60;99.90;;;;;;5006387;28;20080;-65
2023/06/06 04:58:48;;;;;;;0.00;0.00;;;12.60;99.90;;;;;;5014155;28;20118;-65
2023/06/06 05:01:15;;;;;;;0.25;0.20;;;12.70;99.90;;;;;;5015685;28;20115;-65
2023/06/06 05:03:41;;;;;;;0.10;0.10;;;12.70;99.90;;;;;;5012691;28;20095;-65
2023/06/06 05:06:07;;;;;;;1.65;1.55;;;12.80;99.90;;;;;;5012082;28;20042;-65
2023/06/06 05:08:39;;;;;;;0.25;0.25;;;12.80;99.90;;;;;;5010892;28;20034;-66
2023/06/06 05:11:05;;;;;;;0.13;0.13;;;12.80;99.90;;;;;;5008128;28;20109;-65
2023/06/06 05:13:31;;;;;;;0.28;0.28;;;12.90;99.90;;;;;;5003819;28;20431;-65
2023/06/06 05:15:56;;;;;;;0.10;0.10;;;12.90;99.90;;;;;;5009701;28;20046;-65
2023/06/06 05:18:22;;;;;;;0.00;0.00;;;12.90;99.90;;;;;;5012366;28;20168;-65
2023/06/06 05:20:48;;;;;;;0.60;0.55;;;13.00;99.90;;;;;;5014377;28;20465;-65
2023/06/06 05:23:13;;;;;;;0.08;0.08;;;12.90;99.90;;;;;;5014981;28;20056;-65
2023/06/06 05:25:39;;;;;;;0.10;0.10;;;13.00;99.90;;;;;;5011569;28;20034;-65
2023/06/06 05:28:05;;;;;;;5.53;3.00;;;13.00;99.90;;;;;;5011127;28;20131;-65
2023/06/06 05:30:30;;;;;;;0.20;0.20;;;13.00;99.90;;;;;;5013451;28;20133;-65
2023/06/06 05:32:56;;;;;;;0.00;0.00;;;13.10;99.90;;;;;;5002976;28;20125;-65
2023/06/06 05:35:21;;;;;;;0.22;0.22;;;13.10;99.90;;;;;;5014634;28;20081;-65
2023/06/06 05:37:49;;;;;;;0.43;0.32;;;13.20;99.90;;;;;;5005625;28;20390;-65
2023/06/06 05:40:14;;;;;;;1.45;0.85;;;13.30;99.90;;;;;;5010369;28;20445;-65
2023/06/06 05:42:40;;;;;;;0.40;0.40;;;13.30;99.90;;;;;;5014715;28;20030;-66
2023/06/06 05:45:06;;;;;;;0.50;0.50;;;13.30;99.90;;;;;;5014808;28;20042;-65
2023/06/06 05:47:32;;;;;;;0.10;0.10;;;13.30;99.90;;;;;;5002088;28;20042;-65
2023/06/06 05:49:57;;;;;;;0.20;0.20;;;13.30;99.90;;;;;;5004674;28;20405;-65
2023/06/06 05:52:23;;;;;;;0.10;0.10;;;13.40;99.90;;;;;;5014972;28;20462;-65
2023/06/06 05:54:49;;;;;;;0.85;0.55;;;13.50;99.90;;;;;;5004510;28;20077;-66
2023/06/06 05:57:20;;;;;;;0.03;0.03;;;13.50;99.90;;;;;;5007542;28;20079;-65
2023/06/06 05:59:46;;;;;;;0.52;0.52;;;13.60;99.90;;;;;;5014604;28;20073;-65
2023/06/06 06:02:14;;;;;;;0.30;0.30;;;13.50;99.90;;;;;;5002033;28;20526;-65
2023/06/06 06:04:45;;;;;;;0.00;0.00;;;13.60;99.90;;;;;;5008285;28;20029;-66
2023/06/06 06:07:11;;;;;;;0.32;0.32;;;13.60;99.90;;;;;;5013770;28;20433;-65
2023/06/06 06:09:37;;;;;;;0.00;0.00;;;13.70;99.90;;;;;;4995999;28;20128;-66
2023/06/06 06:12:05;;;;;;;0.00;0.00;;;13.70;99.90;;;;;;5009586;28;20049;-65
2023/06/06 06:14:31;;;;;;;0.20;0.20;;;13.70;99.90;;;;;;5014158;28;20474;-65
2023/06/06 06:16:56;;;;;;;0.00;0.00;;;13.70;99.90;;;;;;5003574;28;20034;-65
2023/06/06 06:19:22;;;;;;;0.57;0.57;;;13.80;99.90;;;;;;5012660;28;20041;-66
2023/06/06 06:21:48;;;;;;;0.30;0.30;;;13.80;99.90;;;;;;5011183;28;20086;-65
2023/06/06 06:24:13;;;;;;;9.63;0.73;;;13.90;99.90;;;;;;5011271;28;20050;-65
2023/06/06 06:26:39;;;;;;;0.15;0.15;;;13.90;99.90;;;;;;5013805;28;20049;-65
2023/06/06 06:29:05;;;;;;;0.10;0.10;;;14.00;99.90;;;;;;5011675;28;20050;-65
2023/06/06 06:31:30;;;;;;;0.00;0.00;;;14.10;99.90;;;;;;5010596;28;20409;-65
2023/06/06 06:33:56;;;;;;;0.82;0.82;;;14.10;99.90;;;;;;5005469;28;20466;-66
2023/06/06 06:36:22;;;;;;;0.10;0.10;;;14.20;99.90;;;;;;5007908;28;20092;-66
2023/06/06 06:38:48;;;;;;;0.13;0.13;;;14.20;99.90;;;;;;5007561;28;20046;-66
2023/06/06 06:41:13;;;;;;;1.30;0.82;;;14.40;99.90;;;;;;5004764;28;20044;-66
2023/06/06 06:43:39;;;;;;;0.00;0.00;;;14.30;99.90;;;;;;5013830;28;20040;-66
2023/06/06 06:46:05;;;;;;;1.45;1.10;;;14.40;99.90;;;;;;5011412;28;20137;-66
2023/06/06 06:48:31;;;;;;;0.00;0.00;;;14.40;99.90;;;;;;5011891;28;20124;-66
2023/06/06 06:50:56;;;;;;;0.43;0.43;;;14.40;99.90;;;;;;5005582;28;20455;-66
2023/06/06 06:53:25;;;;;;;0.00;0.00;;;14.40;99.90;;;;;;5013617;28;20038;-65
2023/06/06 06:55:55;;;;;;;0.20;0.20;;;14.50;99.90;;;;;;5013747;28;20473;-66
2023/06/06 06:58:33;;;;;;;0.22;0.22;;;14.50;99.90;;;;;;5005085;28;20349;-66
2023/06/06 07:01:01;;;;;;;0.00;0.00;;;14.60;99.90;;;;;;5011556;28;20057;-66
2023/06/06 07:03:27;;;;;;;0.00;0.00;;;14.70;99.90;;;;;;5013647;28;20090;-66
2023/06/06 07:05:53;;;;;;;0.28;0.28;;;14.70;99.90;;;;;;5002526;28;20050;-66
2023/06/06 07:08:19;;;;;;;0.25;0.25;;;14.80;99.90;;;;;;5003518;28;20129;-66
2023/06/06 07:10:44;;;;;;;0.93;0.80;;;14.80;99.90;;;;;;5013395;28;20117;-66
2023/06/06 07:13:13;;;;;;;0.10;0.10;;;14.80;99.90;;;;;;5012519;28;20504;-66
2023/06/06 07:15:38;;;;;;;0.00;0.00;;;14.90;99.90;;;;;;5005306;28;20058;-66
2023/06/06 07:18:04;;;;;;;0.00;0.00;;;15.00;99.90;;;;;;5004834;28;20041;-66
2023/06/06 07:20:30;;;;;;;0.00;0.00;;;14.90;99.90;;;;;;5001808;28;20104;-65
2023/06/06 07:22:56;;;;;;;0.52;0.43;;;15.10;99.90;;;;;;5012637;28;20050;-66
2023/06/06 07:25:22;;;;;;;0.10;0.10;;;15.10;99.90;;;;;;5004275;28;20136;-65
2023/06/06 07:27:48;;;;;;;0.30;0.30;;;15.20;99.90;;;;;;5011202;28;20125;-66
2023/06/06 07:30:14;;;;;;;0.05;0.05;;;15.30;99.90;;;;;;5012983;28;20053;-66
2023/06/06 07:32:41;;;;;;;0.05;0.05;;;15.20;99.90;;;;;;5011525;28;20088;-65
2023/06/06 07:35:11;;;;;;;0.15;0.05;;;15.30;99.90;;;;;;5006308;28;20053;-66
2023/06/06 07:37:37;;;;;;;0.10;0.10;;;15.20;99.90;;;;;;5009395;28;20042;-66
2023/06/06 07:40:05;;;;;;;0.28;0.28;;;15.30;99.90;;;;;;5013052;28;20099;-66
2023/06/06 07:42:31;;;;;;;0.08;0.08;;;15.30;99.90;;;;;;4999183;28;20056;-65
2023/06/06 07:44:58;;;;;;;0.30;0.30;;;15.30;99.90;;;;;;5009332;28;20054;-66
2023/06/06 07:47:24;;;;;;;0.08;0.08;;;15.40;99.90;;;;;;5001840;28;20037;-65
2023/06/06 07:49:52;;;;;;;0.20;0.20;;;15.50;99.90;;;;;;5008949;28;20449;-65
2023/06/06 07:52:18;;;;;;;0.93;0.65;;;15.60;99.90;;;;;;5009016;28;20038;-66
2023/06/06 07:54:44;;;;;;;0.00;0.00;;;15.60;99.90;;;;;;5004654;28;20045;-66
2023/06/06 07:57:10;;;;;;;0.30;0.30;;;15.70;99.90;;;;;;5012735;28;20100;-66
2023/06/06 07:59:36;;;;;;;0.20;0.20;;;15.60;99.90;;;;;;5020074;28;20053;-66
2023/06/06 08:02:02;;;;;;;0.10;0.10;;;15.70;99.90;;;;;;5025874;28;20072;-66
2023/06/06 08:04:27;;;;;;;0.10;0.10;;;15.70;99.90;;;;;;5012952;28;20046;-66
2023/06/06 08:06:53;;;;;;;0.55;0.55;;;15.70;99.90;;;;;;4998406;28;20080;-66
2023/06/06 08:09:19;;;;;;;0.00;0.00;;;15.80;99.90;;;;;;5009700;28;20052;-66
2023/06/06 08:11:45;;;;;;;0.08;0.08;;;15.90;99.90;;;;;;5027715;28;20144;-66
2023/06/06 08:14:11;;;;;;;0.20;0.20;;;16.00;99.90;;;;;;5002681;28;20054;-66
2023/06/06 08:16:37;;;;;;;0.08;0.08;;;16.00;99.90;;;;;;4994692;28;20042;-66
2023/06/06 08:19:03;;;;;;;0.10;0.10;;;16.00;99.90;;;;;;5012839;28;20457;-66
2023/06/06 08:21:29;;;;;;;0.05;0.05;;;16.10;99.90;;;;;;5012111;28;20042;-66
2023/06/06 08:23:55;;;;;;;0.00;0.00;;;16.10;99.90;;;;;;5007610;28;20088;-66
2023/06/06 08:26:25;;;;;;;0.00;0.00;;;16.20;99.90;;;;;;5008846;28;20506;-66
2023/06/06 08:28:53;;;;;;;1.35;0.88;;;16.20;99.90;;;;;;5011927;28;20073;-66
2023/06/06 08:31:19;;;;;;;0.10;0.10;;;16.30;99.90;;;;;;5011120;28;20046;-66
2023/06/06 08:33:46;;;;;;;0.20;0.20;;;16.30;99.90;;;;;;5003668;28;20096;-66
2023/06/06 08:36:12;;;;;;;0.00;0.00;;;16.40;99.90;;;;;;5006182;28;20452;-66
2023/06/06 08:38:39;;;;;;;0.55;0.20;;;16.40;99.90;;;;;;4999764;28;20088;-66
2023/06/06 08:41:05;;;;;;;0.00;0.00;;;16.40;99.90;;;;;;5011233;28;20054;-66
2023/06/06 08:43:36;;;;;;;0.13;0.13;;;16.40;99.90;;;;;;5010090;28;20551;-66
2023/06/06 08:46:03;;;;;;;0.95;0.93;;;16.40;99.90;;;;;;5009289;28;20046;-66
2023/06/06 08:48:29;;;;;;;0.22;0.22;;;16.40;99.90;;;;;;5012063;28;20117;-66
2023/06/06 08:51:00;;;;;;;0.20;0.20;;;16.50;99.90;;;;;;4999246;28;20050;-66
2023/06/06 08:53:26;;;;;;;0.98;0.32;;;16.60;99.90;;;;;;5004628;28;20037;-66
2023/06/06 08:55:56;;;;;;;0.10;0.10;;;16.70;99.90;;;;;;4999182;28;20497;-66
2023/06/06 08:58:22;;;;;;;0.17;0.17;;;16.80;99.90;;;;;;5003468;28;20051;-66
2023/06/06 09:00:53;;;;;;;0.20;0.20;;;16.90;99.90;;;;;;5011814;28;20038;-66
2023/06/06 09:03:19;;;;;;;0.70;0.30;;;16.80;99.90;;;;;;5011638;28;20486;-66
2023/06/06 09:05:47;;;;;;;0.17;0.17;;;16.90;99.90;;;;;;4998278;28;20056;-66
2023/06/06 09:08:13;;;;;;;0.00;0.00;;;17.10;99.90;;;;;;5008912;28;20049;-66
2023/06/06 09:10:39;;;;;;;0.50;0.50;;;16.90;99.90;;;;;;5011819;28;20124;-66
2023/06/06 09:13:04;;;;;;;6.32;0.38;;;16.90;99.90;;;;;;5005741;28;20129;-66
2023/06/06 09:15:30;;;;;;;0.10;0.10;;;17.00;99.90;;;;;;4997646;28;20050;-66
2023/06/06 09:17:55;;;;;;;0.47;0.35;;;17.10;99.90;;;;;;4999305;28;20074;-66
2023/06/06 09:20:22;;;;;;;0.00;0.00;;;17.10;99.90;;;;;;5008078;28;20092;-66
2023/06/06 09:22:49;;;;;;;0.13;0.13;;;17.20;99.90;;;;;;5006450;28;20042;-66
2023/06/06 09:25:19;;;;;;;0.00;0.00;;;17.20;99.90;;;;;;5004473;28;20049;-66
2023/06/06 09:27:45;;;;;;;0.55;0.55;;;17.20;99.90;;;;;;5010745;28;20042;-66
2023/06/06 09:30:25;;;;;;;0.25;0.25;;;17.20;99.90;;;;;;5011648;28;20119;-66
2023/06/06 09:32:58;;;;;;;0.03;0.03;;;17.40;99.90;;;;;;5007527;28;20398;-66
2023/06/06 09:35:44;;;;;;;0.63;0.32;;;17.40;99.90;;;;;;5006416;28;20048;-66
2023/06/06 09:38:17;;;;;;;1.45;0.98;;;17.50;99.90;;;;;;5003650;28;20500;-66
2023/06/06 09:40:51;;;;;;;0.50;0.40;;;17.60;99.90;;;;;;5003050;28;20043;-66
2023/06/06 09:43:23;;;;;;;0.80;0.55;;;17.70;99.90;;;;;;5010308;28;20545;-66
2023/06/06 09:45:50;;;;;;;0.22;0.22;;;17.90;99.90;;;;;;5011364;28;20092;-66
2023/06/06 09:48:23;;;;;;;0.40;0.40;;;18.20;99.90;;;;;;5006095;28;20042;-66
2023/06/06 09:50:51;;;;;;;0.75;0.75;;;18.60;99.90;;;;;;5014905;28;20064;-66
2023/06/06 09:53:17;;;;;;;0.30;0.30;;;18.70;99.90;;;;;;5012622;28;20050;-66
2023/06/06 09:55:44;;;;;;;0.13;0.13;;;18.90;99.90;;;;;;5024920;28;20049;-66
2023/06/06 09:58:15;;;;;;;0.50;0.50;;;19.10;99.90;;;;;;5005362;28;20077;-66
2023/06/06 10:00:43;;;;;;;0.45;0.45;;;19.10;99.90;;;;;;5014695;28;20042;-66
2023/06/06 10:03:11;;;;;;;0.28;0.28;;;19.20;99.90;;;;;;5026887;28;20485;-66
2023/06/06 10:05:38;;;;;;;0.10;0.10;;;19.20;99.90;;;;;;5004326;28;20104;-66
2023/06/06 10:08:05;;;;;;;0.10;0.10;;;19.20;99.90;;;;;;5013789;28;20494;-66
2023/06/06 10:10:32;;;;;;;2.17;0.30;;;19.20;99.90;;;;;;5012895;28;20033;-66
2023/06/06 10:12:58;;;;;;;0.20;0.20;;;19.30;99.90;;;;;;5009423;28;20088;-65
2023/06/06 10:15:25;;;;;;;0.70;0.40;;;19.00;99.90;;;;;;5013698;28;20045;-65
2023/06/06 10:17:51;;;;;;;0.32;0.32;;;19.20;99.90;;;;;;5014419;28;20042;-65
2023/06/06 10:20:17;;;;;;;0.00;0.00;;;19.60;99.90;;;;;;5012433;28;20059;-65
2023/06/06 10:22:42;;;;;;;0.77;0.45;;;19.60;99.90;;;;;;5009902;28;20064;-65
2023/06/06 10:25:13;;;;;;;0.30;0.30;;;19.60;99.90;;;;;;5014011;28;20089;-65
2023/06/06 10:27:57;;;;;;;0.22;0.22;;;19.70;99.90;;;;;;5014250;28;20124;-65
2023/06/06 10:30:37;;;;;;;0.25;0.25;;;19.70;99.90;;;;;;5006165;28;20046;-66
2023/06/06 10:33:17;;;;;;;0.32;0.32;;;19.80;99.90;;;;;;5005063;28;20076;-66
2023/06/06 10:35:44;;;;;;;0.10;0.10;;;19.90;99.90;;;;;;5009226;28;20660;-65
2023/06/06 10:38:10;;;;;;;0.80;0.80;;;19.90;99.90;;;;;;5013187;28;20037;-65
2023/06/06 10:40:54;;;;;;;0.65;0.65;;;19.90;99.90;;;;;;5013802;28;20046;-66
2023/06/06 10:43:44;;;;;;;0.10;0.10;;;19.90;99.90;;;;;;4999072;28;21059;-65
2023/06/06 10:46:10;;;;;;;0.00;0.00;;;19.90;99.90;;;;;;5012822;28;20050;-65
2023/06/06 10:48:39;;;;;;;0.15;0.13;;;20.10;99.90;;;;;;5006292;28;20108;-65
2023/06/06 10:51:25;;;;;;;0.52;0.52;;;20.20;99.90;;;;;;5007650;28;20049;-66
2023/06/06 10:54:22;;;;;;;0.15;0.15;;;20.10;99.90;;;;;;5011830;28;20038;-65
2023/06/06 10:56:54;;;;;;;0.00;0.00;;;20.10;99.90;;;;;;4999446;28;20052;-65
2023/06/06 10:59:26;;;;;;;0.57;0.57;;;20.20;99.90;;;;;;5012017;28;20050;-66
2023/06/06 11:01:54;;;;;;;0.00;0.00;;;20.30;99.90;;;;;;5010224;28;20446;-65
2023/06/06 11:04:22;;;;;;;0.25;0.25;;;20.40;99.90;;;;;;5000605;28;20172;-65
2023/06/06 11:06:52;;;;;;;0.35;0.35;;;20.10;99.90;;;;;;5013505;28;20045;-65
2023/06/06 11:09:22;;;;;;;0.30;0.30;;;20.10;99.90;;;;;;5010642;28;20045;-65
2023/06/06 11:12:14;;;;;;;9.63;0.70;;;20.30;99.90;;;;;;5010580;28;20045;-66
2023/06/06 11:14:55;;;;;;;12.27;1.80;;;20.50;99.90;;;;;;5005774;28;20441;-66
2023/06/06 11:17:24;;;;;;;1.13;1.08;;;20.60;99.90;;;;;;5005848;28;20112;-66
2023/06/06 11:19:51;;;;;;;0.55;0.45;;;20.60;99.90;;;;;;5012439;28;20037;-65
2023/06/06 11:22:23;;;;;;;0.20;0.20;;;20.70;99.90;;;;;;5011625;28;20053;-66
2023/06/06 11:24:48;;;;;;;0.35;0.35;;;20.80;99.90;;;;;;5008028;28;20104;-65
2023/06/06 11:27:16;;;;;;;0.50;0.50;;;20.90;99.90;;;;;;5004209;28;20752;-65
2023/06/06 11:29:42;;;;;;;0.00;0.00;;;20.90;99.90;;;;;;5028092;28;20061;-65
2023/06/06 11:32:12;;;;;;;0.25;0.25;;;21.00;99.90;;;;;;5011865;28;20129;-65
2023/06/06 11:34:38;;;;;;;0.08;0.08;;;21.00;99.90;;;;;;5007602;28;20042;-66
2023/06/06 11:37:06;;;;;;;0.00;0.00;;;21.00;99.90;;;;;;5013005;28;20057;-65
2023/06/06 11:39:31;;;;;;;0.13;0.13;;;20.90;99.90;;;;;;5012357;28;20045;-66
2023/06/06 11:41:58;;;;;;;2.20;1.45;;;21.20;99.90;;;;;;5007980;28;20045;-65
2023/06/06 11:44:50;;;;;;;0.05;0.05;;;21.20;99.90;;;;;;5019966;28;20425;-65
2023/06/06 11:47:15;;;;;;;0.20;0.20;;;21.20;99.90;;;;;;4996238;28;20077;-65
2023/06/06 11:49:43;;;;;;;0.28;0.28;;;21.50;99.90;;;;;;5008186;28;20478;-66
2023/06/06 11:52:08;;;;;;;0.10;0.10;;;21.70;99.90;;;;;;5002996;28;20043;-65
2023/06/06 11:54:34;;;;;;;0.20;0.20;;;21.60;99.90;;;;;;5024182;28;20071;-66
2023/06/06 11:57:02;;;;;;;0.10;0.10;;;21.70;99.90;;;;;;5042469;28;20121;-66
2023/06/06 11:59:34;;;;;;;0.00;0.00;;;21.70;99.90;;;;;;5000026;28;20112;-66
2023/06/06 12:02:00;;;;;;;0.13;0.13;;;21.80;99.90;;;;;;5007566;28;20375;-66
2023/06/06 12:04:26;;;;;;;0.10;0.05;;;22.00;99.90;;;;;;5023951;28;20132;-66
2023/06/06 12:06:54;;;;;;;0.57;0.43;;;21.90;99.90;;;;;;5010519;28;20123;-66
2023/06/06 12:09:20;;;;;;;0.47;0.43;;;22.10;99.90;;;;;;5011404;28;20508;-66
2023/06/06 12:11:59;;;;;;;0.00;0.00;;;21.80;99.90;;;;;;5010483;28;20159;-66
2023/06/06 12:14:26;;;;;;;0.63;0.63;;;22.10;99.90;;;;;;5011028;28;20065;-65
2023/06/06 12:16:53;;;;;;;1.33;0.60;;;22.10;99.90;;;;;;5011885;28;20042;-66
2023/06/06 12:19:19;;;;;;;0.10;0.10;;;22.30;99.90;;;;;;5012487;28;20056;-66
2023/06/06 12:21:51;;;;;;;0.08;0.08;;;22.40;99.90;;;;;;4998703;28;20413;-66
2023/06/06 12:24:18;;;;;;;0.00;0.00;;;22.20;99.90;;;;;;5008060;28;20053;-66
2023/06/06 12:26:53;;;;;;;0.00;0.00;;;22.40;99.90;;;;;;5010405;28;20485;-66
2023/06/06 12:29:20;;;;;;;0.00;0.00;;;22.30;99.90;;;;;;5003492;28;20054;-66
2023/06/06 12:31:49;;;;;;;0.25;0.25;;;22.40;99.90;;;;;;5012640;28;20062;-66
2023/06/06 12:34:14;;;;;;;1.45;0.43;;;22.50;99.90;;;;;;5027566;28;20050;-66
2023/06/06 12:36:41;;;;;;;10.40;1.05;;;22.70;99.90;;;;;;5008612;28;20482;-66
2023/06/06 12:39:11;;;;;;;0.10;0.10;;;22.30;99.90;;;;;;5004429;28;20064;-66
2023/06/06 12:41:41;;;;;;;0.00;0.00;;;22.20;99.90;;;;;;5012328;28;20100;-66
2023/06/06 12:44:10;;;;;;;0.00;0.00;;;22.40;99.90;;;;;;5008560;28;20085;-66
2023/06/06 12:46:37;;;;;;;0.10;0.10;;;22.40;99.90;;;;;;5009183;28;20069;-66
2023/06/06 12:49:03;;;;;;;0.17;0.17;;;22.60;99.90;;;;;;5012211;28;20042;-66
2023/06/06 12:51:29;;;;;;;0.57;0.43;;;22.60;99.90;;;;;;5010349;28;20042;-66